createdAt,value
2023-03-16T17:04:57.241Z,179.75
2023-03-16T17:06:29.489Z,182.00
2023-03-16T17:08:04.411Z,180.75
2023-03-16T17:09:37.047Z,223.33
2023-03-16T17:11:24.584Z,190.00
2023-03-16T17:13:02.303Z,168.50
2023-03-16T17:14:34.420Z,161.50
2023-03-16T17:16:07.463Z,152.25
2023-03-16T17:17:42.125Z,140.75
2023-03-16T17:19:50.028Z,146.00
2023-03-16T17:21:24.074Z,138.50
2023-03-16T17:22:57.614Z,131.25
2023-03-16T17:24:30.172Z,131.25
2023-03-16T17:26:23.624Z,132.00
2023-03-16T17:27:56.746Z,137.25
2023-03-16T17:29:33.152Z,129.75
2023-03-16T17:31:05.725Z,131.25
2023-03-16T17:32:38.143Z,127.00
2023-03-16T17:34:22.521Z,126.00
2023-03-16T17:36:07.982Z,129.50
2023-03-16T17:37:43.004Z,111.75
2023-03-16T17:39:44.117Z,108.50
2023-03-16T17:41:24.581Z,123.75
2023-03-16T17:42:59.118Z,111.25
2023-03-16T17:44:43.791Z,118.75
2023-03-16T17:46:23.816Z,127.50
2023-03-16T17:48:01.712Z,139.50
2023-03-16T17:49:34.114Z,131.25
2023-03-16T17:51:06.204Z,153.00
2023-03-16T17:52:38.238Z,157.25
2023-03-16T17:54:35.468Z,165.50
2023-03-16T17:56:30.500Z,164.75
2023-03-16T17:58:06.101Z,165.50
2023-03-16T17:59:38.444Z,163.00
2023-03-16T18:01:11.697Z,163.75
2023-03-16T18:02:50.055Z,171.00
2023-03-16T18:04:24.807Z,176.50
2023-03-16T18:05:59.625Z,169.75
2023-03-16T18:07:31.998Z,177.75
2023-03-16T18:09:03.981Z,166.25
2023-03-16T18:10:37.286Z,170.50
2023-03-16T18:12:36.226Z,167.75
2023-03-16T18:14:39.950Z,174.00
2023-03-16T18:16:25.120Z,191.67
2023-03-16T18:18:02.993Z,201.33
2023-03-16T18:20:01.069Z,204.67
2023-03-16T18:21:35.237Z,209.67
2023-03-16T18:23:16.754Z,195.00
2023-03-16T18:25:45.091Z,205.33
2023-03-16T18:27:27.806Z,212.67
2023-03-16T18:29:03.798Z,205.00
2023-03-16T18:30:37.658Z,193.67
2023-03-16T18:32:24.806Z,209.33
2023-03-16T18:34:03.141Z,205.33
2023-03-16T18:35:38.251Z,206.33
2023-03-16T18:37:47.937Z,212.00
2023-03-16T18:39:23.719Z,204.00
2023-03-16T18:41:33.744Z,192.33
2023-03-16T18:43:06.276Z,202.33
2023-03-16T18:44:43.559Z,197.33
2023-03-16T18:46:36.524Z,203.67
2023-03-16T18:48:10.308Z,189.00
2023-03-16T18:49:47.623Z,192.00
2023-03-16T18:51:24.276Z,211.33
2023-03-16T18:52:56.842Z,202.33
2023-03-16T18:54:38.530Z,191.67
2023-03-16T18:56:22.218Z,187.67
2023-03-16T18:57:58.831Z,188.67
2023-03-16T19:02:45.243Z,188.67
2023-03-16T19:04:31.085Z,181.00
2023-03-16T19:06:03.086Z,180.00
2023-03-16T19:07:36.997Z,174.33
2023-03-16T19:09:22.901Z,187.33
2023-03-16T19:11:01.705Z,191.33
2023-03-16T19:12:34.856Z,203.67
2023-03-16T19:14:27.167Z,197.33
2023-03-16T19:16:00.872Z,192.33
2023-03-16T19:17:34.309Z,196.33
2023-03-16T19:19:07.233Z,237.50
2023-03-16T19:20:40.642Z,211.00
2023-03-16T19:22:19.246Z,207.67
2023-03-16T19:23:58.740Z,192.00
2023-03-16T19:25:33.297Z,201.67
2023-03-16T19:27:13.261Z,192.67
2023-03-16T19:29:13.668Z,195.00
2023-03-16T19:31:24.948Z,200.00
2023-03-16T19:32:57.905Z,199.67
2023-03-16T19:34:29.922Z,203.33
2023-03-16T19:36:02.128Z,204.33
2023-03-16T19:37:34.345Z,185.67
2023-03-16T19:39:06.258Z,193.67
2023-03-16T19:40:42.703Z,197.33
2023-03-16T19:42:31.188Z,186.33
2023-03-16T19:46:38.128Z,183.50
2023-03-16T19:50:26.429Z,163.50
2023-03-16T19:51:58.523Z,194.67
2023-03-16T19:53:31.574Z,174.00
2023-03-16T19:55:03.711Z,175.25
2023-03-16T19:56:35.979Z,165.00
2023-03-16T19:58:17.571Z,169.50
2023-03-16T19:59:54.809Z,173.25
2023-03-16T20:01:33.884Z,160.50
2023-03-16T20:03:12.815Z,161.25
2023-03-16T20:04:44.882Z,156.00
2023-03-16T20:06:47.581Z,163.75
2023-03-16T20:08:25.825Z,153.50
2023-03-16T20:09:57.940Z,156.25
2023-03-16T20:11:31.011Z,171.00
2023-03-16T20:13:04.134Z,172.75
2023-03-16T20:14:36.496Z,156.75
2023-03-16T20:16:19.088Z,174.75
2023-03-16T20:17:54.882Z,163.25
2023-03-16T20:19:28.785Z,162.50
2023-03-16T20:21:02.037Z,169.50
2023-03-16T20:22:34.176Z,203.67
2023-03-16T20:24:20.118Z,173.00
2023-03-16T20:26:01.369Z,154.25
2023-03-16T20:27:34.506Z,170.50
2023-03-16T20:29:07.389Z,184.00
2023-03-16T20:31:35.304Z,189.75
2023-03-16T20:33:15.574Z,174.33
2023-03-16T20:34:50.488Z,179.00
2023-03-16T20:36:28.423Z,175.00
2023-03-16T20:38:13.053Z,180.25
2023-03-16T20:39:51.638Z,163.25
2023-03-16T20:42:01.253Z,170.50
2023-03-16T20:43:35.794Z,157.50
2023-03-16T20:45:23.801Z,165.75
2023-03-16T20:47:28.754Z,159.25
2023-03-16T20:49:06.349Z,153.25
2023-03-16T20:50:38.410Z,141.00
2023-03-16T20:52:24.648Z,149.00
2023-03-16T20:53:58.349Z,133.25
2023-03-16T20:55:33.816Z,136.50
2023-03-16T20:57:34.339Z,134.50
2023-03-16T21:03:28.189Z,124.00
2023-03-16T21:05:00.592Z,128.00
2023-03-16T21:06:33.879Z,113.00
2023-03-16T21:08:06.658Z,111.00
2023-03-16T21:09:38.654Z,312.50
2023-03-16T21:11:29.875Z,208.33
2023-03-16T21:13:04.391Z,163.75
2023-03-16T21:14:36.237Z,150.00
2023-03-16T21:16:11.549Z,137.50
2023-03-16T21:18:23.448Z,140.75
2023-03-16T21:19:55.853Z,131.50
2023-03-16T21:21:33.417Z,118.00
2023-03-16T21:23:38.341Z,120.25
2023-03-16T21:25:26.250Z,116.75
2023-03-16T21:27:13.024Z,113.50
2023-03-16T21:29:17.557Z,107.00
2023-03-16T21:31:19.563Z,111.25
2023-03-16T21:32:54.224Z,103.50
2023-03-16T21:34:32.338Z,107.50
2023-03-16T21:36:06.383Z,93.20
2023-03-16T21:37:38.576Z,95.60
2023-03-16T21:39:36.830Z,92.60
2023-03-16T21:41:15.077Z,99.20
2023-03-16T21:42:49.817Z,98.50
2023-03-16T21:44:31.729Z,109.75
2023-03-16T21:46:07.191Z,121.75
2023-03-16T21:47:39.209Z,112.50
2023-03-16T21:49:11.885Z,103.00
2023-03-16T21:50:49.937Z,115.75
2023-03-16T21:52:27.932Z,105.00
2023-03-16T21:53:59.768Z,109.75
2023-03-16T21:55:32.418Z,100.20
2023-03-16T21:57:15.622Z,96.00
2023-03-16T21:58:52.617Z,107.00
2023-03-16T22:00:32.356Z,96.50
2023-03-16T22:02:41.862Z,98.20
2023-03-16T22:04:19.926Z,90.80
2023-03-16T22:05:52.653Z,100.00
2023-03-16T22:07:26.017Z,86.00
2023-03-16T22:08:58.344Z,97.40
2023-03-16T22:10:30.576Z,95.60
2023-03-16T22:12:02.508Z,86.60
2023-03-16T22:13:34.756Z,88.00
2023-03-16T22:15:07.558Z,99.40
2023-03-16T22:16:43.212Z,104.40
2023-03-16T22:18:37.823Z,108.00
2023-03-16T22:20:25.881Z,111.50
2023-03-16T22:22:23.407Z,107.25
2023-03-16T22:24:29.307Z,111.50
2023-03-16T22:26:13.797Z,111.50
2023-03-16T22:28:14.294Z,99.00
2023-03-16T22:29:51.301Z,100.20
2023-03-16T22:31:29.973Z,103.25
2023-03-16T22:33:01.990Z,113.50
2023-03-16T22:34:45.795Z,140.25
2023-03-16T22:36:45.889Z,109.00
2023-03-16T22:38:21.619Z,106.25
2023-03-16T22:39:53.739Z,109.50
2023-03-16T22:41:28.184Z,115.25
2023-03-16T22:45:38.775Z,116.00
2023-03-16T22:47:34.137Z,114.75
2023-03-16T22:49:07.224Z,117.75
2023-03-16T22:50:39.157Z,115.75
2023-03-16T22:52:14.042Z,106.50
2023-03-16T22:53:48.510Z,114.00
2023-03-16T22:55:22.848Z,111.25
2023-03-16T22:56:54.810Z,108.50
2023-03-16T22:58:33.188Z,107.40
2023-03-16T23:00:10.412Z,117.75
2023-03-16T23:01:46.584Z,115.00
2023-03-16T23:03:34.318Z,123.50
2023-03-16T23:05:33.875Z,125.50
2023-03-16T23:07:33.014Z,122.25
2023-03-16T23:10:59.797Z,119.00
2023-03-16T23:12:31.766Z,123.00
2023-03-16T23:14:03.646Z,123.00
2023-03-16T23:15:35.711Z,111.25
2023-03-16T23:17:41.025Z,113.25
2023-03-16T23:19:25.913Z,112.00
2023-03-16T23:21:00.714Z,111.25
2023-03-16T23:22:32.662Z,102.50
2023-03-16T23:24:04.897Z,107.50
2023-03-16T23:25:37.086Z,103.40
2023-03-16T23:27:28.425Z,102.00
2023-03-16T23:29:00.423Z,101.80
2023-03-16T23:30:36.969Z,98.20
2023-03-16T23:32:34.154Z,67.80
2023-03-16T23:34:15.246Z,96.80
